createdAt,value
2023-03-17T00:01:54.947Z,15.43
2023-03-17T00:04:27.632Z,15.42
2023-03-17T00:06:55.391Z,15.42
2023-03-17T00:09:22.842Z,15.41
2023-03-17T00:11:50.337Z,15.40
2023-03-17T00:14:19.257Z,15.41
2023-03-17T00:16:50.385Z,15.40
2023-03-17T00:19:21.900Z,15.39
2023-03-17T00:21:50.066Z,15.37
2023-03-17T00:24:17.491Z,15.36
2023-03-17T00:26:47.192Z,15.37
2023-03-17T00:29:17.109Z,15.36
2023-03-17T00:31:45.829Z,15.35
2023-03-17T00:34:22.772Z,15.34
2023-03-17T00:36:51.745Z,15.34
2023-03-17T00:39:19.490Z,15.35
2023-03-17T00:44:15.412Z,15.31
2023-03-17T00:46:42.618Z,15.31
2023-03-17T00:49:18.928Z,15.32
2023-03-17T00:51:46.436Z,15.31
2023-03-17T00:54:14.793Z,15.29
2023-03-17T00:56:42.902Z,15.28
2023-03-17T00:59:24.424Z,15.27
2023-03-17T01:01:52.034Z,15.28
2023-03-17T01:04:20.368Z,15.26
2023-03-17T01:06:51.006Z,15.25
2023-03-17T01:09:20.564Z,15.26
2023-03-17T01:11:48.850Z,15.25
2023-03-17T01:14:17.038Z,15.25
2023-03-17T01:16:45.049Z,15.23
2023-03-17T01:19:13.353Z,15.22
2023-03-17T01:21:41.085Z,15.23
2023-03-17T01:24:08.448Z,15.22
2023-03-17T01:26:35.385Z,15.22
2023-03-17T01:29:02.446Z,15.22
2023-03-17T01:31:29.658Z,15.23
2023-03-17T01:33:57.036Z,15.20
2023-03-17T01:36:24.008Z,15.19
2023-03-17T01:38:51.171Z,15.19
2023-03-17T01:41:19.332Z,15.18
2023-03-17T01:43:46.028Z,15.18
2023-03-17T01:46:32.133Z,15.16
2023-03-17T01:49:19.882Z,15.13
2023-03-17T01:52:14.415Z,15.14
2023-03-17T01:55:07.102Z,15.13
2023-03-17T01:57:39.977Z,15.11
2023-03-17T02:00:12.145Z,15.12
2023-03-17T02:02:42.073Z,15.11
2023-03-17T02:05:12.388Z,15.10
2023-03-17T02:07:41.792Z,15.09
2023-03-17T02:10:10.010Z,15.09
2023-03-17T02:12:37.242Z,15.08
2023-03-17T02:15:05.540Z,15.07
2023-03-17T02:17:32.394Z,15.08
2023-03-17T02:20:14.840Z,15.05
2023-03-17T02:22:43.438Z,15.05
2023-03-17T02:25:10.759Z,15.03
2023-03-17T02:27:42.855Z,15.04
2023-03-17T02:30:12.208Z,15.03
2023-03-17T02:32:38.968Z,15.01
2023-03-17T02:35:07.361Z,15.01
2023-03-17T02:37:34.895Z,15.01
2023-03-17T02:40:02.811Z,14.99
2023-03-17T02:42:29.567Z,14.99
2023-03-17T02:44:56.303Z,14.97
2023-03-17T02:47:23.069Z,14.98
2023-03-17T02:49:51.347Z,14.97
2023-03-17T02:52:18.191Z,14.94
2023-03-17T02:54:44.930Z,14.94
2023-03-17T02:57:11.869Z,14.93
2023-03-17T02:59:38.660Z,14.93
2023-03-17T03:02:05.920Z,14.92
2023-03-17T03:04:32.796Z,14.92
2023-03-17T03:06:59.763Z,14.92
2023-03-17T03:09:26.452Z,14.92
2023-03-17T03:11:53.616Z,14.91
2023-03-17T03:14:20.426Z,14.90
2023-03-17T03:16:47.709Z,14.89
2023-03-17T03:19:14.700Z,14.90
2023-03-17T03:21:41.633Z,14.86
2023-03-17T03:24:09.550Z,14.87
2023-03-17T03:26:36.330Z,14.88
2023-03-17T03:29:04.886Z,14.88
2023-03-17T03:31:31.834Z,14.86
2023-03-17T03:33:58.661Z,14.84
2023-03-17T03:36:27.022Z,14.84
2023-03-17T03:38:53.881Z,14.85
2023-03-17T03:41:20.910Z,14.85
2023-03-17T03:43:47.748Z,14.82
2023-03-17T03:46:15.926Z,14.80
2023-03-17T03:48:42.848Z,14.79
2023-03-17T03:51:09.906Z,14.78
2023-03-17T03:53:36.684Z,14.81
2023-03-17T03:56:03.478Z,14.81
2023-03-17T03:58:30.356Z,14.79
2023-03-17T04:00:57.102Z,14.78
2023-03-17T04:03:23.915Z,14.77
2023-03-17T04:05:51.066Z,14.75
2023-03-17T04:08:17.982Z,14.74
2023-03-17T04:10:44.746Z,14.75
2023-03-17T04:13:11.800Z,14.72
2023-03-17T04:15:38.654Z,14.71
2023-03-17T04:18:05.821Z,14.72
2023-03-17T04:20:33.290Z,14.73
2023-03-17T04:23:00.558Z,14.70
2023-03-17T04:25:27.785Z,14.69
2023-03-17T04:27:54.453Z,14.69
2023-03-17T04:30:21.266Z,14.66
2023-03-17T04:32:48.094Z,14.67
2023-03-17T04:35:18.019Z,14.68
2023-03-17T04:37:45.185Z,14.66
2023-03-17T04:40:13.653Z,14.66
2023-03-17T04:42:40.782Z,14.64
2023-03-17T04:45:09.794Z,14.62
2023-03-17T04:47:37.490Z,14.63
2023-03-17T04:50:05.840Z,14.63
2023-03-17T04:52:32.737Z,14.62
2023-03-17T04:54:59.604Z,14.60
2023-03-17T04:57:26.412Z,14.60
2023-03-17T04:59:53.122Z,14.59
2023-03-17T05:02:19.886Z,14.62
2023-03-17T05:04:46.732Z,14.58
2023-03-17T05:07:14.204Z,14.60
2023-03-17T05:09:42.080Z,14.58
2023-03-17T05:12:10.081Z,14.61
2023-03-17T05:14:37.508Z,14.57
2023-03-17T05:17:04.396Z,14.54
2023-03-17T05:19:31.256Z,14.56
2023-03-17T05:21:58.099Z,14.54
2023-03-17T05:24:25.133Z,14.54
2023-03-17T05:26:51.878Z,14.51
2023-03-17T05:29:18.674Z,14.51
2023-03-17T05:31:45.380Z,14.53
2023-03-17T05:34:12.111Z,14.52
2023-03-17T05:36:39.016Z,14.50
2023-03-17T05:39:05.841Z,14.50
2023-03-17T05:41:34.082Z,14.50
2023-03-17T05:44:01.082Z,14.50
2023-03-17T05:46:28.246Z,14.49
2023-03-17T05:48:54.966Z,14.49
2023-03-17T05:51:23.043Z,14.48
2023-03-17T05:53:49.864Z,14.46
2023-03-17T05:56:16.772Z,14.46
2023-03-17T05:58:43.665Z,14.45
2023-03-17T06:01:10.496Z,14.46
2023-03-17T06:03:38.831Z,14.46
2023-03-17T06:06:06.194Z,14.44
2023-03-17T06:08:32.910Z,14.48
2023-03-17T06:10:59.769Z,14.45
2023-03-17T06:13:26.473Z,14.45
2023-03-17T06:15:53.250Z,14.45
2023-03-17T06:18:20.672Z,14.45
2023-03-17T06:20:47.468Z,14.43
2023-03-17T06:23:14.452Z,14.45
2023-03-17T06:25:41.800Z,14.46
2023-03-17T06:28:08.838Z,14.47
2023-03-17T06:30:38.752Z,14.46
2023-03-17T06:33:07.043Z,14.46
2023-03-17T06:35:34.663Z,14.47
2023-03-17T06:38:02.616Z,14.48
2023-03-17T06:40:29.934Z,14.48
2023-03-17T06:42:56.790Z,14.52
2023-03-17T06:45:23.612Z,14.50
2023-03-17T06:47:50.354Z,14.52
2023-03-17T06:50:17.622Z,14.54
2023-03-17T06:52:46.628Z,14.54
2023-03-17T06:55:13.915Z,14.53
2023-03-17T06:57:41.134Z,14.55
2023-03-17T07:00:09.026Z,14.56
2023-03-17T07:02:36.229Z,14.58
2023-03-17T07:05:04.656Z,14.61
2023-03-17T07:07:31.786Z,14.62
2023-03-17T07:09:59.935Z,14.61
2023-03-17T07:12:27.280Z,14.64
2023-03-17T07:14:54.313Z,14.64
2023-03-17T07:17:21.028Z,14.62
2023-03-17T07:19:47.773Z,14.68
2023-03-17T07:22:14.645Z,14.69
2023-03-17T07:24:45.040Z,14.73
2023-03-17T07:27:11.793Z,14.74
2023-03-17T07:29:39.246Z,14.72
2023-03-17T07:32:08.251Z,14.72
2023-03-17T07:34:35.861Z,14.73
2023-03-17T07:37:03.143Z,14.73
2023-03-17T07:39:29.928Z,14.77
2023-03-17T07:41:56.786Z,14.79
2023-03-17T07:44:25.104Z,14.78
2023-03-17T07:46:52.361Z,14.76
2023-03-17T07:49:34.084Z,14.76
2023-03-17T07:52:05.945Z,14.78
2023-03-17T07:54:32.979Z,14.79
2023-03-17T07:57:00.150Z,14.83
2023-03-17T07:59:27.473Z,14.82
2023-03-17T08:01:54.451Z,14.87
2023-03-17T08:04:21.413Z,14.90
2023-03-17T08:06:48.129Z,14.91
2023-03-17T08:09:15.351Z,14.93
2023-03-17T08:11:42.199Z,14.93
2023-03-17T08:14:10.069Z,14.93
2023-03-17T08:16:37.190Z,14.97
2023-03-17T08:19:04.645Z,14.96
2023-03-17T08:21:32.161Z,14.98
2023-03-17T08:23:59.152Z,14.94
2023-03-17T08:26:27.217Z,14.94
2023-03-17T08:28:54.615Z,14.97
2023-03-17T08:31:22.906Z,15.00
2023-03-17T08:33:52.660Z,15.02
2023-03-17T08:36:21.352Z,15.00
2023-03-17T08:38:48.475Z,15.04
2023-03-17T08:41:18.565Z,15.03
2023-03-17T08:43:46.246Z,15.02
2023-03-17T08:46:18.454Z,15.07
2023-03-17T08:48:46.964Z,15.10
2023-03-17T08:51:17.735Z,15.09
2023-03-17T08:53:45.985Z,15.12
2023-03-17T08:56:15.548Z,15.13
2023-03-17T08:58:46.183Z,15.18
2023-03-17T09:01:13.549Z,15.19
2023-03-17T09:03:42.115Z,15.22
2023-03-17T09:06:11.756Z,15.27
2023-03-17T09:08:40.833Z,15.29
2023-03-17T09:11:08.720Z,15.30
2023-03-17T09:13:38.043Z,15.31
2023-03-17T09:16:06.112Z,15.35
2023-03-17T09:18:33.324Z,15.36
2023-03-17T09:21:00.770Z,15.39
2023-03-17T09:23:27.956Z,15.41
2023-03-17T09:25:55.076Z,15.43
2023-03-17T09:28:21.958Z,15.48
2023-03-17T09:30:49.357Z,15.50
2023-03-17T09:33:17.977Z,15.51
2023-03-17T09:35:44.929Z,15.52
2023-03-17T09:38:13.096Z,15.51
2023-03-17T09:40:48.537Z,15.54
2023-03-17T09:43:52.768Z,15.56
2023-03-17T09:46:41.886Z,15.59
2023-03-17T09:49:12.146Z,15.60
2023-03-17T09:51:39.697Z,15.60
2023-03-17T09:54:29.655Z,15.63
2023-03-17T09:57:10.552Z,15.65
2023-03-17T09:59:42.343Z,15.67
2023-03-17T10:02:21.842Z,15.68
2023-03-17T10:04:49.308Z,15.69
2023-03-17T10:07:22.739Z,15.70
2023-03-17T10:10:16.916Z,15.72
2023-03-17T10:12:58.381Z,15.75
2023-03-17T10:15:36.795Z,15.78
2023-03-17T10:18:13.573Z,15.83
2023-03-17T10:20:56.659Z,15.87
2023-03-17T10:23:32.040Z,15.90
2023-03-17T10:26:08.395Z,15.94
2023-03-17T10:28:39.223Z,15.94
2023-03-17T10:31:16.874Z,15.97
2023-03-17T10:33:52.497Z,16.01
2023-03-17T10:36:38.185Z,16.06
2023-03-17T10:39:07.504Z,16.12
2023-03-17T10:41:41.283Z,16.15
2023-03-17T10:44:21.821Z,16.17
2023-03-17T10:46:57.374Z,16.19
2023-03-17T10:49:26.288Z,16.22
2023-03-17T10:51:54.427Z,16.25
2023-03-17T10:54:25.469Z,16.25
2023-03-17T10:57:02.491Z,16.30
2023-03-17T10:59:32.983Z,16.34
2023-03-17T11:02:01.766Z,16.35
2023-03-17T11:04:59.890Z,16.39
2023-03-17T11:07:39.373Z,16.43
2023-03-17T11:10:21.216Z,16.46
2023-03-17T11:12:53.465Z,16.49
2023-03-17T11:15:23.010Z,16.50
2023-03-17T11:18:00.951Z,16.52
2023-03-17T11:20:36.348Z,16.54
2023-03-17T11:23:09.174Z,16.60
2023-03-17T11:25:42.555Z,16.64
2023-03-17T11:28:21.811Z,16.68
2023-03-17T11:31:13.241Z,16.73
2023-03-17T11:33:59.400Z,16.77
2023-03-17T11:37:12.149Z,16.81
2023-03-17T11:39:41.845Z,16.84
2023-03-17T11:42:21.578Z,16.88
2023-03-17T11:45:17.534Z,16.91
2023-03-17T11:47:44.200Z,16.94
2023-03-17T11:50:33.972Z,17.00
2023-03-17T11:53:22.512Z,17.06
2023-03-17T11:55:57.914Z,17.14
2023-03-17T11:58:39.803Z,17.15
2023-03-17T12:01:10.306Z,17.19
2023-03-17T12:03:46.221Z,17.24
2023-03-17T12:06:21.555Z,17.26
2023-03-17T12:08:59.873Z,17.27
2023-03-17T12:11:30.118Z,17.27
2023-03-17T12:14:04.948Z,17.30
2023-03-17T12:17:12.575Z,17.35
2023-03-17T12:20:07.158Z,17.40
2023-03-17T12:22:57.980Z,17.43
2023-03-17T12:25:33.748Z,17.49
2023-03-17T12:28:09.203Z,17.48
2023-03-17T12:30:48.488Z,17.49
2023-03-17T12:33:30.076Z,17.52
2023-03-17T12:35:58.997Z,17.56
2023-03-17T12:38:36.415Z,17.55
2023-03-17T12:41:18.412Z,17.59
2023-03-17T12:43:47.795Z,17.61
2023-03-17T12:46:29.924Z,17.61
2023-03-17T12:49:18.485Z,17.63
2023-03-17T12:51:52.592Z,17.64
2023-03-17T12:54:32.141Z,17.71
2023-03-17T12:57:19.161Z,17.75
2023-03-17T12:59:49.324Z,17.76
2023-03-17T13:02:38.200Z,17.77
2023-03-17T13:05:17.168Z,17.86
2023-03-17T13:07:52.734Z,17.91
2023-03-17T13:10:42.050Z,17.92
2023-03-17T13:13:35.751Z,17.87
2023-03-17T13:16:26.687Z,17.84
2023-03-17T13:19:07.834Z,17.86
2023-03-17T13:21:36.457Z,17.87
2023-03-17T13:24:18.692Z,17.91
2023-03-17T13:27:10.292Z,17.97
2023-03-17T13:29:36.931Z,17.97
2023-03-17T13:32:17.015Z,17.96
2023-03-17T13:34:55.979Z,18.00
2023-03-17T13:37:31.592Z,18.03
2023-03-17T13:40:16.917Z,18.05
2023-03-17T13:42:43.620Z,18.08
2023-03-17T13:45:20.782Z,18.11
2023-03-17T13:47:49.735Z,18.15
2023-03-17T13:50:22.642Z,18.15
2023-03-17T13:52:55.664Z,18.19
2023-03-17T13:55:22.317Z,18.21
2023-03-17T13:58:11.924Z,18.25
2023-03-17T14:00:42.586Z,18.28
2023-03-17T14:03:12.321Z,18.33
2023-03-17T14:05:40.865Z,18.35
2023-03-17T14:08:23.175Z,18.37
2023-03-17T14:10:54.824Z,18.36
2023-03-17T14:14:31.995Z,18.39
2023-03-17T14:17:07.041Z,18.40
2023-03-17T14:19:33.753Z,18.41
2023-03-17T14:22:19.934Z,18.40
2023-03-17T14:24:51.769Z,18.42
2023-03-17T14:27:18.870Z,18.46
2023-03-17T14:29:46.121Z,18.48
2023-03-17T14:32:16.222Z,18.52
2023-03-17T14:34:45.401Z,18.52
2023-03-17T14:37:12.808Z,18.51
2023-03-17T14:39:48.290Z,18.55
2023-03-17T14:42:18.152Z,18.54
2023-03-17T14:44:44.829Z,18.56
2023-03-17T14:47:23.668Z,18.56
2023-03-17T14:49:52.981Z,18.54
2023-03-17T14:52:32.928Z,18.50
2023-03-17T14:55:01.061Z,18.52
2023-03-17T14:57:31.740Z,18.48
2023-03-17T15:00:21.940Z,18.49
2023-03-17T15:02:59.658Z,18.49
2023-03-17T15:05:36.408Z,18.49
2023-03-17T15:08:23.132Z,18.48
2023-03-17T15:10:49.809Z,18.52
2023-03-17T15:13:16.450Z,18.53
2023-03-17T15:15:44.700Z,18.53
2023-03-17T15:18:14.407Z,18.54
2023-03-17T15:20:44.468Z,18.56
2023-03-17T15:23:18.847Z,18.60
2023-03-17T15:25:50.044Z,18.65
2023-03-17T15:28:20.278Z,18.68
2023-03-17T15:30:53.519Z,18.68
2023-03-17T15:33:29.512Z,18.69
2023-03-17T15:35:57.182Z,18.70
2023-03-17T15:38:24.942Z,18.70
2023-03-17T15:40:51.663Z,18.71
2023-03-17T15:43:21.730Z,18.73
2023-03-17T15:45:55.503Z,18.73
2023-03-17T15:48:25.509Z,18.75
2023-03-17T15:50:55.409Z,18.81
2023-03-17T15:53:22.683Z,18.82
2023-03-17T15:55:49.513Z,18.87
2023-03-17T15:58:16.442Z,18.88
2023-03-17T16:00:45.167Z,18.88
2023-03-17T16:03:34.971Z,18.93
2023-03-17T16:06:03.423Z,18.91
2023-03-17T16:08:30.573Z,18.87
2023-03-17T16:10:57.432Z,18.86
2023-03-17T16:13:24.364Z,18.88
2023-03-17T16:15:57.770Z,18.89
2023-03-17T16:18:37.025Z,18.86
2023-03-17T16:21:05.159Z,18.85
2023-03-17T16:23:36.523Z,18.83
2023-03-17T16:26:14.233Z,18.82
2023-03-17T16:28:44.672Z,18.80
2023-03-17T16:31:24.198Z,18.78
2023-03-17T16:33:52.942Z,18.77
2023-03-17T16:36:21.814Z,18.76
2023-03-17T16:38:49.765Z,18.73
2023-03-17T16:41:27.790Z,18.68
2023-03-17T16:44:01.213Z,18.65
2023-03-17T16:46:33.356Z,18.64
2023-03-17T16:49:01.976Z,18.62
2023-03-17T16:51:28.689Z,18.59
2023-03-17T16:53:55.322Z,18.57
2023-03-17T16:56:25.185Z,18.58
2023-03-17T16:58:51.952Z,18.56
2023-03-17T17:01:24.964Z,18.52
2023-03-17T17:03:52.077Z,18.52
2023-03-17T17:06:20.754Z,18.50
2023-03-17T17:08:49.323Z,18.47
2023-03-17T17:11:18.032Z,18.48
2023-03-17T17:13:47.544Z,18.45
2023-03-17T17:16:27.507Z,18.45
2023-03-17T17:18:54.560Z,18.44
2023-03-17T17:21:21.457Z,18.43
2023-03-17T17:23:48.458Z,18.42
2023-03-17T17:26:15.586Z,18.39
2023-03-17T17:28:42.841Z,18.39
2023-03-17T17:31:10.978Z,18.38
2023-03-17T17:33:38.428Z,18.36
2023-03-17T17:36:08.247Z,18.36
2023-03-17T17:38:34.912Z,18.34
2023-03-17T17:41:06.973Z,18.34
2023-03-17T17:43:33.708Z,18.32
2023-03-17T17:46:01.069Z,18.31
2023-03-17T17:48:28.804Z,18.31
2023-03-17T17:50:56.786Z,18.30
2023-03-17T17:53:24.078Z,18.30
2023-03-17T17:55:51.918Z,18.29
2023-03-17T17:58:22.279Z,18.28
2023-03-17T18:00:49.261Z,18.29
2023-03-17T18:03:16.122Z,18.28
2023-03-17T18:05:42.998Z,18.27
2023-03-17T18:08:14.291Z,18.25
2023-03-17T18:10:41.511Z,18.25
2023-03-17T18:13:08.380Z,18.23
2023-03-17T18:15:35.170Z,18.22
2023-03-17T18:18:01.800Z,18.21
2023-03-17T18:20:28.502Z,18.20
2023-03-17T18:22:55.162Z,18.20
2023-03-17T18:25:21.889Z,18.18
2023-03-17T18:27:48.534Z,18.17
2023-03-17T18:30:27.882Z,18.17
2023-03-17T18:33:07.855Z,18.16
2023-03-17T18:35:34.871Z,18.13
2023-03-17T18:38:02.074Z,18.14
2023-03-17T18:40:29.044Z,18.13
2023-03-17T18:42:56.005Z,18.13
2023-03-17T18:45:23.090Z,18.13
2023-03-17T18:47:49.786Z,18.11
2023-03-17T18:50:17.614Z,18.11
2023-03-17T18:52:44.985Z,18.10
2023-03-17T18:55:13.277Z,18.10
2023-03-17T18:57:40.296Z,18.09
2023-03-17T19:00:09.858Z,18.08
2023-03-17T19:02:37.881Z,18.06
2023-03-17T19:05:06.327Z,18.06
2023-03-17T19:07:33.623Z,18.06
2023-03-17T19:10:00.497Z,18.04
2023-03-17T19:12:27.101Z,18.03
2023-03-17T19:14:56.571Z,18.03
2023-03-17T19:17:23.457Z,18.04
2023-03-17T19:19:52.984Z,18.02
2023-03-17T19:22:19.688Z,18.01
2023-03-17T19:24:47.972Z,18.00
2023-03-17T19:27:14.650Z,17.99
2023-03-17T19:29:41.486Z,17.98
2023-03-17T19:32:08.276Z,17.98
2023-03-17T19:34:35.399Z,17.97
2023-03-17T19:37:03.576Z,17.96
2023-03-17T19:39:31.447Z,17.95
2023-03-17T19:41:59.416Z,17.95
2023-03-17T19:44:26.138Z,17.94
2023-03-17T19:46:52.845Z,17.93
2023-03-17T19:49:21.208Z,17.93
2023-03-17T19:51:49.192Z,17.93
2023-03-17T19:54:16.632Z,17.92
2023-03-17T19:56:43.291Z,17.92
2023-03-17T19:59:10.203Z,17.90
2023-03-17T20:01:38.402Z,17.88
2023-03-17T20:04:07.141Z,17.89
2023-03-17T20:06:34.816Z,17.89
2023-03-17T20:09:04.353Z,17.88
2023-03-17T20:11:34.145Z,17.88
2023-03-17T20:14:04.495Z,17.86
2023-03-17T20:16:33.746Z,17.86
2023-03-17T20:19:01.587Z,17.84
2023-03-17T20:21:28.356Z,17.83
2023-03-17T20:23:57.870Z,17.82
2023-03-17T20:26:24.664Z,17.81
2023-03-17T20:28:51.737Z,17.80
2023-03-17T20:31:18.704Z,17.80
2023-03-17T20:33:45.384Z,17.79
2023-03-17T20:36:13.036Z,17.78
2023-03-17T20:38:40.720Z,17.78
2023-03-17T20:41:18.991Z,17.78
2023-03-17T20:43:46.926Z,17.76
2023-03-17T20:46:24.183Z,17.76
2023-03-17T20:49:01.215Z,17.75
2023-03-17T20:51:28.021Z,17.73
2023-03-17T20:53:55.242Z,17.72
2023-03-17T20:56:23.682Z,17.71
2023-03-17T20:58:50.979Z,17.70
2023-03-17T21:01:20.797Z,17.69
2023-03-17T21:03:48.395Z,17.68
2023-03-17T21:06:15.715Z,17.68
2023-03-17T21:08:42.588Z,17.67
2023-03-17T21:11:16.049Z,17.67
2023-03-17T21:13:44.254Z,17.64
2023-03-17T21:16:22.549Z,17.64
2023-03-17T21:18:49.337Z,17.62
2023-03-17T21:21:17.329Z,17.62
2023-03-17T21:23:45.696Z,17.60
2023-03-17T21:26:12.700Z,17.59
2023-03-17T21:28:41.517Z,17.57
2023-03-17T21:31:09.574Z,17.56
2023-03-17T21:33:36.804Z,17.55
2023-03-17T21:36:03.946Z,17.54
2023-03-17T21:38:31.141Z,17.53
2023-03-17T21:40:58.394Z,17.53
2023-03-17T21:43:25.421Z,17.50
2023-03-17T21:45:52.312Z,17.50
2023-03-17T21:48:19.099Z,17.51
2023-03-17T21:50:47.893Z,17.48
2023-03-17T21:53:15.915Z,17.47
2023-03-17T21:55:42.859Z,17.47
2023-03-17T21:58:09.561Z,17.44
2023-03-17T22:00:45.164Z,17.43
2023-03-17T22:03:12.461Z,17.42
2023-03-17T22:05:39.182Z,17.39
2023-03-17T22:08:06.174Z,17.37
2023-03-17T22:10:32.999Z,17.37
2023-03-17T22:12:59.693Z,17.35
2023-03-17T22:15:26.753Z,17.34
2023-03-17T22:17:53.430Z,17.34
2023-03-17T22:20:20.249Z,17.33
2023-03-17T22:22:46.869Z,17.31
2023-03-17T22:25:13.486Z,17.29
2023-03-17T22:27:40.215Z,17.27
2023-03-17T22:30:10.988Z,17.27
2023-03-17T22:32:37.619Z,17.26
2023-03-17T22:35:04.785Z,17.24
2023-03-17T22:37:31.426Z,17.22
2023-03-17T22:40:02.703Z,17.22
2023-03-17T22:42:29.411Z,17.21
2023-03-17T22:44:56.183Z,17.20
2023-03-17T22:47:22.808Z,17.18
2023-03-17T22:49:49.562Z,17.18
2023-03-17T22:52:16.164Z,17.15
2023-03-17T22:54:42.803Z,17.15
2023-03-17T22:57:09.500Z,17.15
2023-03-17T22:59:36.365Z,17.15
2023-03-17T23:02:03.075Z,17.13
2023-03-17T23:04:29.735Z,17.13
2023-03-17T23:06:56.619Z,17.08
2023-03-17T23:09:23.905Z,17.08
2023-03-17T23:11:51.134Z,17.08
2023-03-17T23:14:17.800Z,17.07
2023-03-17T23:16:45.151Z,17.07
2023-03-17T23:19:12.498Z,17.05
2023-03-17T23:21:40.052Z,17.02
2023-03-17T23:24:08.614Z,17.02
2023-03-17T23:26:37.118Z,17.02
2023-03-17T23:29:05.746Z,16.99
2023-03-17T23:31:34.141Z,17.00
2023-03-17T23:34:01.029Z,16.98
2023-03-17T23:36:27.771Z,16.97
2023-03-17T23:38:54.488Z,16.95
2023-03-17T23:41:21.564Z,16.96
2023-03-17T23:43:49.137Z,16.93
2023-03-17T23:46:15.808Z,16.93
2023-03-17T23:48:43.096Z,16.91
2023-03-17T23:51:12.148Z,16.91
2023-03-17T23:53:42.233Z,16.90
2023-03-17T23:56:11.575Z,16.89
2023-03-17T23:58:38.961Z,16.88
